Time;durP1;ratioP1;P1;durP2;ratioP2;P2;SDS_P1;SDS_P2;PMS_P1;PMS_P2;Temp;Humidity;BMP_temperature;BMP_pressure;BME280_temperature;BME280_humidity;BME280_pressure;Samples;Min_cycle;Max_cycle;Signal;HPM_P1;HPM_P2
2022/05/10 00:01:49;;;;;;;8.95;7.20;;;;;;;12.78;75.57;99893.44;4988871;28;20048;-58
2022/05/10 00:04:14;;;;;;;13.02;7.43;;;;;;;12.54;76.54;99893.53;4987334;28;20029;-58
2022/05/10 00:06:43;;;;;;;12.25;7.90;;;;;;;12.63;76.18;99891.28;4987486;28;20506;-58
2022/05/10 00:09:08;;;;;;;10.65;7.85;;;;;;;12.74;75.72;99898.50;5004593;28;20056;-58
2022/05/10 00:11:34;;;;;;;13.65;7.95;;;;;;;12.65;75.86;99894.53;5004142;28;20026;-58
2022/05/10 00:14:00;;;;;;;10.57;7.88;;;;;;;12.60;76.44;99892.56;5006666;28;20175;-58
2022/05/10 00:16:25;;;;;;;9.50;7.97;;;;;;;12.52;77.18;99891.06;5008680;28;20472;-58
2022/05/10 00:18:51;;;;;;;15.55;8.55;;;;;;;12.54;76.81;99887.34;4991176;28;20022;-58
2022/05/10 00:21:19;;;;;;;9.70;7.78;;;;;;;12.58;77.28;99886.63;4991351;28;20108;-58
2022/05/10 00:23:44;;;;;;;10.15;7.40;;;;;;;12.64;76.30;99880.28;4975596;28;20054;-58
2022/05/10 00:26:10;;;;;;;10.98;8.45;;;;;;;12.58;76.83;99881.25;5009043;28;20061;-57
2022/05/10 00:28:35;;;;;;;10.15;7.88;;;;;;;12.58;77.06;99881.25;5008472;28;20088;-58
2022/05/10 00:31:01;;;;;;;11.60;8.25;;;;;;;12.60;76.81;99887.19;4990639;28;20042;-58
2022/05/10 00:33:27;;;;;;;11.05;8.07;;;;;;;12.49;77.05;99878.13;5009442;28;20116;-58
2022/05/10 00:35:53;;;;;;;11.77;7.90;;;;;;;12.51;77.49;99877.91;4972069;28;20116;-58
2022/05/10 00:38:19;;;;;;;12.05;8.13;;;;;;;12.55;76.95;99873.66;5007941;28;20038;-58
2022/05/10 00:40:45;;;;;;;14.75;8.13;;;;;;;12.62;76.21;99871.63;4982849;28;20064;-58
2022/05/10 00:43:30;;;;;;;11.98;8.90;;;;;;;12.60;76.53;99873.75;5007228;28;20061;-58
2022/05/10 00:46:08;;;;;;;12.85;7.88;;;;;;;12.43;77.50;99876.41;4999543;28;20108;-58
2022/05/10 00:48:53;;;;;;;12.15;8.25;;;;;;;12.44;77.40;99872.66;4991916;28;20041;-59
2022/05/10 00:51:32;;;;;;;10.93;8.45;;;;;;;12.37;77.91;99876.53;4986109;28;20257;-58
2022/05/10 00:54:00;;;;;;;11.68;8.35;;;;;;;12.27;78.50;99864.50;4987153;28;20035;-58
2022/05/10 00:56:33;;;;;;;14.18;7.85;;;;;;;12.16;78.55;99865.38;5007464;28;20030;-58
2022/05/10 00:59:12;;;;;;;12.02;9.15;;;;;;;12.09;78.26;99864.69;5004811;28;20046;-58
2022/05/10 01:01:37;;;;;;;11.18;8.48;;;;;;;12.16;77.94;99854.63;4991743;28;20065;-58
2022/05/10 01:04:34;;;;;;;12.02;8.35;;;;;;;12.36;76.73;99856.09;4975852;28;20065;-58
2022/05/10 01:07:08;;;;;;;12.88;8.10;;;;;;;13.10;73.78;99848.84;4990713;28;20029;-58
2022/05/10 01:09:53;;;;;;;10.60;7.53;;;;;;;13.03;74.84;99852.72;4991982;28;20391;-58
2022/05/10 01:12:29;;;;;;;12.10;7.80;;;;;;;12.81;75.29;99850.75;5004945;28;20025;-58
2022/05/10 01:14:59;;;;;;;11.55;9.05;;;;;;;12.03;78.42;99844.97;4988593;28;20522;-58
2022/05/10 01:17:25;;;;;;;11.13;8.32;;;;;;;12.00;79.46;99844.59;4991406;28;20405;-58
2022/05/10 01:19:51;;;;;;;11.25;8.85;;;;;;;11.98;80.47;99844.84;4989658;28;20033;-58
2022/05/10 01:22:19;;;;;;;14.45;9.07;;;;;;;11.92;79.57;99839.59;4989988;28;20026;-58
2022/05/10 01:25:06;;;;;;;15.15;9.25;;;;;;;11.86;79.74;99842.19;5007188;28;20018;-58
2022/05/10 01:27:49;;;;;;;13.48;8.30;;;;;;;11.81;81.91;99842.03;4974852;28;20030;-58
2022/05/10 01:30:19;;;;;;;13.70;8.63;;;;;;;11.78;82.56;99845.19;5004707;28;20061;-59
2022/05/10 01:35:29;;;;;;;13.00;9.35;;;;;;;11.70;81.33;99845.53;5003565;28;19924;-58
2022/05/10 01:37:58;;;;;;;13.82;9.13;;;;;;;11.53;81.19;99833.88;4973325;28;20114;-58
2022/05/10 01:40:36;;;;;;;13.55;9.48;;;;;;;11.56;81.54;99844.16;4977014;28;20045;-59
2022/05/10 01:43:25;;;;;;;11.27;9.02;;;;;;;11.52;81.68;99842.97;4989478;28;20151;-58
2022/05/10 01:46:12;;;;;;;13.23;8.93;;;;;;;11.29;82.83;99843.78;5001688;28;20049;-58
2022/05/10 01:48:38;;;;;;;15.02;10.10;;;;;;;11.40;83.10;99840.28;5001490;28;20447;-59
2022/05/10 01:51:17;;;;;;;16.42;10.60;;;;;;;11.11;83.77;99842.84;4988593;28;20125;-58
2022/05/10 01:53:43;;;;;;;10.70;9.40;;;;;;;11.21;83.90;99840.41;4974334;28;20064;-58
2022/05/10 01:56:17;;;;;;;14.10;9.73;;;;;;;11.40;83.13;99842.97;4985037;28;20034;-58
2022/05/10 01:58:43;;;;;;;14.07;9.55;;;;;;;11.47;82.59;99834.81;4989419;28;20030;-58
2022/05/10 02:01:30;;;;;;;14.93;9.57;;;;;;;11.28;83.70;99832.22;5006837;28;20113;-58
2022/05/10 02:04:06;;;;;;;11.85;9.23;;;;;;;11.42;84.32;99835.50;5006039;28;20117;-58
2022/05/10 02:06:56;;;;;;;13.55;9.45;;;;;;;11.40;83.04;99837.59;4988919;28;20437;-58
2022/05/10 02:09:37;;;;;;;13.07;9.13;;;;;;;11.50;83.82;99835.16;4986843;28;20408;-58
2022/05/10 02:12:13;;;;;;;17.63;10.20;;;;;;;11.55;82.30;99831.78;4973538;28;20045;-58
2022/05/10 02:14:44;;;;;;;12.63;10.25;;;;;;;11.36;83.04;99823.84;4965809;28;20423;-58
2022/05/10 02:17:16;;;;;;;;;;;;;;;11.70;82.27;99824.06;4987510;28;20491;-58
2022/05/10 02:19:56;;;;;;;17.05;9.73;;;;;;;11.90;80.97;99828.25;4973884;28;20347;-58
2022/05/10 02:22:28;;;;;;;11.77;9.93;;;;;;;11.82;79.39;99819.47;5003193;28;20392;-58
2022/05/10 02:25:04;;;;;;;17.30;10.20;;;;;;;11.42;81.21;99816.72;4989388;28;20446;-58
2022/05/10 02:27:38;;;;;;;14.63;10.38;;;;;;;11.25;82.40;99819.28;4978193;28;20030;-58
2022/05/10 02:30:10;;;;;;;14.50;9.98;;;;;;;11.21;84.15;99810.06;5005997;28;20034;-58
2022/05/10 02:33:08;;;;;;;12.20;9.32;;;;;;;11.23;83.65;99814.16;4986219;28;20030;-59
2022/05/10 02:35:55;;;;;;;12.38;10.13;;;;;;;11.08;83.45;99821.81;5002734;28;20056;-58
2022/05/10 02:38:22;;;;;;;12.82;10.40;;;;;;;11.05;83.92;99810.75;5003353;28;20499;-59
2022/05/10 02:40:51;;;;;;;12.77;9.80;;;;;;;10.92;84.66;99807.22;4965055;28;20037;-58
2022/05/10 02:43:56;;;;;;;13.57;10.30;;;;;;;10.98;85.12;99809.00;4989754;28;20423;-58
2022/05/10 02:46:22;;;;;;;13.43;10.55;;;;;;;10.93;85.02;99805.34;4980292;28;20041;-59
2022/05/10 02:48:48;;;;;;;14.15;10.73;;;;;;;11.05;85.83;99800.00;5005231;28;20034;-58
2022/05/10 02:51:14;;;;;;;13.73;9.52;;;;;;;11.05;84.36;99805.38;5002827;28;20033;-58
2022/05/10 02:53:39;;;;;;;15.77;10.40;;;;;;;10.93;84.86;99798.16;5004690;28;20049;-58
2022/05/10 02:56:10;;;;;;;13.48;10.18;;;;;;;10.81;84.29;99805.34;5005759;28;20030;-58
2022/05/10 02:58:37;;;;;;;11.73;9.73;;;;;;;10.69;85.11;99804.50;4988160;28;20503;-58
2022/05/10 03:01:33;;;;;;;16.70;9.95;;;;;;;10.60;86.70;99803.19;5006506;28;20037;-58
2022/05/10 03:03:59;;;;;;;15.82;11.10;;;;;;;10.69;86.71;99807.19;5005211;28;20044;-58
2022/05/10 03:06:25;;;;;;;18.15;11.60;;;;;;;10.73;86.56;99802.97;5005867;28;20428;-58
2022/05/10 03:08:51;;;;;;;17.27;11.30;;;;;;;10.70;86.55;99798.88;5003536;28;20091;-58
2022/05/10 03:11:16;;;;;;;18.25;11.20;;;;;;;10.76;86.20;99791.81;5004127;28;20033;-58
2022/05/10 03:13:42;;;;;;;15.35;12.05;;;;;;;10.78;87.22;99801.25;5003568;28;20022;-58
2022/05/10 03:16:08;;;;;;;14.00;11.07;;;;;;;10.78;86.67;99803.09;5004584;28;20117;-58
2022/05/10 03:18:34;;;;;;;12.75;10.82;;;;;;;10.72;87.19;99799.47;5001248;28;20022;-58
2022/05/10 03:20:59;;;;;;;15.77;10.93;;;;;;;10.82;86.77;99796.25;5006689;28;20507;-58
2022/05/10 03:23:27;;;;;;;16.50;11.88;;;;;;;10.78;87.06;99795.06;5005716;28;20404;-58
2022/05/10 03:25:56;;;;;;;16.80;10.95;;;;;;;10.76;86.22;99797.97;4996613;28;20452;-59
2022/05/10 03:28:22;;;;;;;18.17;12.18;;;;;;;10.82;87.04;99790.88;4985445;28;20052;-58
2022/05/10 03:30:48;;;;;;;16.50;11.23;;;;;;;10.80;87.03;99793.78;4985178;28;20030;-58
2022/05/10 03:33:14;;;;;;;15.48;11.38;;;;;;;10.76;86.81;99795.31;4989337;28;20384;-58
2022/05/10 03:35:40;;;;;;;12.63;10.52;;;;;;;10.64;86.22;99790.97;4973164;28;20030;-58
2022/05/10 03:38:06;;;;;;;16.52;10.73;;;;;;;10.52;86.25;99790.91;4985853;28;20014;-58
2022/05/10 03:40:31;;;;;;;15.95;10.90;;;;;;;10.53;86.86;99793.38;5005802;28;20030;-58
2022/05/10 03:43:01;;;;;;;12.90;10.40;;;;;;;10.42;86.83;99790.66;5004784;28;20022;-58
2022/05/10 03:45:27;;;;;;;19.00;10.77;;;;;;;10.29;87.47;99789.78;5001336;28;20065;-59
2022/05/10 03:47:52;;;;;;;15.82;11.98;;;;;;;10.22;88.93;99790.91;4987068;28;20029;-58
2022/05/10 03:50:19;;;;;;;13.40;10.73;;;;;;;10.23;89.31;99792.50;5005602;28;20666;-58
2022/05/10 03:52:45;;;;;;;15.68;11.32;;;;;;;10.35;89.00;99790.75;5005257;28;20102;-58
2022/05/10 03:55:12;;;;;;;14.48;11.32;;;;;;;10.34;89.17;99787.25;5001915;28;20057;-58
2022/05/10 03:57:38;;;;;;;14.07;11.65;;;;;;;10.36;89.23;99790.53;5001307;28;20125;-58
2022/05/10 04:00:05;;;;;;;20.92;12.40;;;;;;;10.39;89.81;99788.44;4987709;28;20034;-58
2022/05/10 04:02:31;;;;;;;20.02;12.32;;;;;;;10.57;89.46;99789.19;5004756;28;20225;-58
2022/05/10 04:05:00;;;;;;;22.08;13.40;;;;;;;10.80;87.56;99792.97;5004763;28;20026;-58
2022/05/10 04:07:26;;;;;;;14.60;11.48;;;;;;;10.90;86.72;99792.41;4988907;28;20030;-58
2022/05/10 04:09:51;;;;;;;15.55;11.63;;;;;;;10.95;86.69;99779.94;5005113;28;20045;-59
2022/05/10 04:12:17;;;;;;;20.55;11.77;;;;;;;10.92;87.64;99779.59;5003370;28;20083;-58
2022/05/10 04:14:43;;;;;;;17.27;12.18;;;;;;;11.10;85.88;99781.34;4986386;28;20032;-58
2022/05/10 04:17:08;;;;;;;16.42;11.00;;;;;;;11.08;84.46;99772.72;5004897;28;20873;-58
2022/05/10 04:19:34;;;;;;;14.20;11.18;;;;;;;11.07;84.85;99776.47;4971436;28;20034;-58
2022/05/10 04:22:00;;;;;;;15.65;11.85;;;;;;;11.06;85.09;99780.19;4987431;28;20029;-58
2022/05/10 04:24:25;;;;;;;19.65;11.70;;;;;;;10.99;84.59;99785.66;5003467;28;20116;-59
2022/05/10 04:26:51;;;;;;;17.35;10.77;;;;;;;10.92;85.28;99784.97;5004331;28;20076;-58
2022/05/10 04:29:17;;;;;;;17.90;10.98;;;;;;;10.98;85.29;99795.59;5003937;28;20029;-58
2022/05/10 04:31:42;;;;;;;14.50;10.68;;;;;;;10.98;84.15;99784.84;4987564;28;20030;-58
2022/05/10 04:34:08;;;;;;;16.50;10.30;;;;;;;11.14;84.40;99785.22;5006446;28;20480;-58
2022/05/10 04:36:34;;;;;;;19.30;11.45;;;;;;;11.14;83.67;99787.91;5002680;28;20372;-58
2022/05/10 04:38:59;;;;;;;16.58;11.48;;;;;;;11.11;83.35;99783.81;5003610;28;20032;-58
2022/05/10 04:41:29;;;;;;;16.30;10.70;;;;;;;10.86;85.37;99780.50;5004789;28;20127;-58
2022/05/10 04:43:57;;;;;;;18.73;10.73;;;;;;;11.17;85.15;99788.25;5002792;28;20030;-58
2022/05/10 04:46:23;;;;;;;12.85;10.95;;;;;;;11.32;84.75;99793.16;4987441;28;20080;-58
2022/05/10 04:48:49;;;;;;;17.02;11.05;;;;;;;11.27;83.71;99800.28;5001219;28;20037;-58
2022/05/10 04:51:15;;;;;;;16.48;10.20;;;;;;;11.37;82.96;99787.88;5005365;28;20029;-58
2022/05/10 04:53:40;;;;;;;18.08;11.63;;;;;;;11.60;82.90;99791.63;5004201;28;20121;-57
2022/05/10 04:56:06;;;;;;;16.23;11.05;;;;;;;11.77;82.63;99792.53;5005160;28;20026;-58
2022/05/10 04:58:32;;;;;;;15.90;10.77;;;;;;;12.19;79.72;99800.41;5005462;28;20038;-58
2022/05/10 05:01:01;;;;;;;15.20;11.10;;;;;;;12.02;80.14;99804.88;4988213;28;20380;-58
2022/05/10 05:03:27;;;;;;;17.25;11.10;;;;;;;12.04;80.47;99800.09;5008816;28;20037;-58
2022/05/10 05:05:53;;;;;;;17.88;11.38;;;;;;;11.89;81.61;99802.47;5007992;28;20033;-58
2022/05/10 05:08:19;;;;;;;22.00;11.93;;;;;;;12.27;80.94;99808.06;5008363;28;20050;-58
2022/05/10 05:10:44;;;;;;;18.35;11.75;;;;;;;12.58;79.67;99802.44;5008584;28;20038;-59
2022/05/10 05:13:10;;;;;;;15.13;11.18;;;;;;;13.06;77.89;99803.81;4990939;28;20022;-59
2022/05/10 05:15:35;;;;;;;14.10;10.50;;;;;;;13.42;76.76;99807.09;5007934;28;20435;-59
2022/05/10 05:18:03;;;;;;;20.45;11.07;;;;;;;13.93;74.79;99797.00;5006676;28;20057;-58
2022/05/10 05:20:30;;;;;;;15.95;10.95;;;;;;;14.34;72.26;99806.38;4982254;28;20034;-59
2022/05/10 05:22:56;;;;;;;16.00;10.82;;;;;;;14.55;71.47;99801.22;4988995;28;20036;-59
2022/05/10 05:25:22;;;;;;;19.58;11.38;;;;;;;14.90;69.28;99806.13;5007071;28;20476;-58
2022/05/10 05:27:48;;;;;;;15.68;9.52;;;;;;;15.26;68.19;99804.53;5008233;28;20034;-58
2022/05/10 05:30:13;;;;;;;18.05;9.88;;;;;;;15.43;66.97;99812.50;5007673;28;20095;-57
2022/05/10 05:32:40;;;;;;;12.80;9.32;;;;;;;15.58;66.91;99806.38;5007726;28;20124;-56
2022/05/10 05:35:06;;;;;;;11.75;9.13;;;;;;;13.50;72.59;99810.16;5006353;28;20374;-59
2022/05/10 05:37:35;;;;;;;13.50;9.70;;;;;;;13.29;74.17;99817.13;5008030;28;20061;-59
2022/05/10 05:40:11;;;;;;;13.35;10.07;;;;;;;13.16;76.38;99807.47;5007411;28;20032;-59
2022/05/10 05:42:37;;;;;;;16.60;10.43;;;;;;;13.76;74.14;99803.25;5006134;28;20033;-58
2022/05/10 05:45:04;;;;;;;12.85;8.95;;;;;;;14.72;70.57;99799.22;4996660;28;20042;-58
2022/05/10 05:47:30;;;;;;;30.83;13.85;;;;;;;15.14;68.88;99803.91;4987932;28;20042;-58
2022/05/10 05:49:56;;;;;;;33.58;13.95;;;;;;;15.02;68.47;99798.69;4986962;28;20040;-58
2022/05/10 05:52:22;;;;;;;25.98;13.10;;;;;;;15.46;67.99;99803.06;4987133;28;20547;-60
2022/05/10 05:54:51;;;;;;;28.20;11.60;;;;;;;15.89;66.99;99803.84;4985913;28;20044;-61
2022/05/10 05:57:17;;;;;;;33.83;12.00;;;;;;;16.55;63.89;99797.88;4987332;28;20459;-58
2022/05/10 05:59:42;;;;;;;18.23;10.82;;;;;;;16.78;63.92;99796.56;4987347;28;20026;-58
2022/05/10 06:02:15;;;;;;;37.00;12.70;;;;;;;17.56;61.16;99798.94;4986292;28;20023;-58
2022/05/10 06:04:41;;;;;;;33.42;12.13;;;;;;;18.28;58.73;99813.09;4986616;28;20053;-59
2022/05/10 06:07:06;;;;;;;27.13;11.77;;;;;;;19.60;54.71;99809.66;5003956;28;20026;-58
2022/05/10 06:09:32;;;;;;;18.15;10.60;;;;;;;20.12;53.51;99804.44;4986744;28;20568;-59
2022/05/10 06:11:58;;;;;;;22.48;10.32;;;;;;;20.75;51.14;99812.31;4985897;28;20117;-57
2022/05/10 06:14:23;;;;;;;23.95;10.32;;;;;;;20.45;52.10;99811.63;4984928;28;20038;-59
2022/05/10 06:16:49;;;;;;;18.00;9.30;;;;;;;21.31;50.57;99814.09;4987699;28;20041;-59
2022/05/10 06:19:15;;;;;;;25.95;9.38;;;;;;;21.80;48.79;99813.81;4985701;28;20030;-57
2022/05/10 06:21:43;;;;;;;20.50;8.70;;;;;;;21.33;50.23;99817.34;4976770;28;20122;-59
2022/05/10 06:24:12;;;;;;;36.77;9.00;;;;;;;21.60;49.76;99809.56;5002074;28;20023;-59
2022/05/10 06:26:37;;;;;;;35.70;10.05;;;;;;;20.99;50.73;99812.22;4987795;28;20038;-59
2022/05/10 06:29:03;;;;;;;28.80;8.65;;;;;;;20.90;51.59;99803.91;4986798;28;20032;-59
2022/05/10 06:31:32;;;;;;;19.83;8.65;;;;;;;21.86;49.77;99804.41;4987183;28;20022;-58
2022/05/10 06:33:57;;;;;;;32.40;8.80;;;;;;;21.43;50.87;99810.13;4986929;28;20058;-58
2022/05/10 06:36:23;;;;;;;32.25;8.77;;;;;;;21.03;52.09;99804.25;4999650;28;20053;-58
2022/05/10 06:38:49;;;;;;;31.23;8.75;;;;;;;21.66;50.37;99811.06;4986419;28;20049;-58
2022/05/10 06:41:14;;;;;;;28.08;9.48;;;;;;;21.69;50.69;99797.66;4985434;28;20034;-58
2022/05/10 06:43:40;;;;;;;28.55;8.27;;;;;;;20.75;52.04;99795.16;4985291;28;20551;-59
2022/05/10 06:46:32;;;;;;;29.58;8.95;;;;;;;21.05;52.25;99802.03;5004110;28;20046;-58
2022/05/10 06:48:58;;;;;;;31.30;9.40;;;;;;;20.20;55.50;99798.38;5004469;28;20472;-58
2022/05/10 06:51:24;;;;;;;38.47;9.73;;;;;;;19.76;56.42;99796.72;4999476;28;20048;-58
2022/05/10 06:53:50;;;;;;;27.25;9.40;;;;;;;19.78;56.88;99794.53;5005021;28;20062;-58
2022/05/10 06:56:16;;;;;;;26.58;8.30;;;;;;;21.88;50.92;99796.72;5003314;28;20034;-58
2022/05/10 06:58:42;;;;;;;24.90;9.07;;;;;;;22.58;49.15;99796.31;4983168;28;20030;-57
2022/05/10 07:01:14;;;;;;;20.48;7.63;;;;;;;23.11;47.89;99791.28;5005480;28;20038;-58
2022/05/10 07:03:44;;;;;;;32.20;8.18;;;;;;;24.54;44.14;99790.03;5005310;28;20046;-58
2022/05/10 07:06:11;;;;;;;22.90;8.05;;;;;;;25.14;43.66;99789.16;5005034;28;20030;-58
2022/05/10 07:08:37;;;;;;;28.25;8.77;;;;;;;24.87;42.71;99795.03;5005578;28;20056;-59
2022/05/10 07:11:02;;;;;;;26.67;8.15;;;;;;;23.89;44.90;99789.75;5006154;28;20045;-58
2022/05/10 07:13:29;;;;;;;30.52;8.25;;;;;;;24.34;44.45;99785.97;5006337;28;20038;-59
2022/05/10 07:15:55;;;;;;;25.90;8.40;;;;;;;23.34;46.42;99783.84;5005892;28;20105;-58
2022/05/10 07:18:21;;;;;;;26.27;7.53;;;;;;;23.70;46.24;99780.94;4986165;28;20110;-58
2022/05/10 07:20:47;;;;;;;30.50;8.02;;;;;;;24.01;46.38;99780.09;4984271;28;20077;-58
2022/05/10 07:23:12;;;;;;;29.17;7.70;;;;;;;24.21;45.99;99776.78;5004421;28;20030;-58
2022/05/10 07:25:38;;;;;;;23.45;7.13;;;;;;;25.63;43.40;99771.59;4992176;28;20042;-58
2022/05/10 07:28:06;;;;;;;20.85;7.15;;;;;;;26.59;40.64;99774.59;5004239;28;20026;-58
2022/05/10 07:30:32;;;;;;;24.02;6.85;;;;;;;26.32;41.54;99771.22;5005044;28;20112;-58
2022/05/10 07:32:58;;;;;;;18.27;6.60;;;;;;;26.81;40.92;99776.16;5004523;28;20105;-58
2022/05/10 07:38:08;;;;;;;26.30;6.95;;;;;;;26.68;41.58;99776.16;5005220;28;20052;-58
2022/05/10 07:40:33;;;;;;;12.85;5.95;;;;;;;27.19;39.81;99770.47;4997334;28;20041;-58
2022/05/10 07:42:59;;;;;;;18.75;6.10;;;;;;;27.38;40.11;99777.38;5004601;28;20054;-58
2022/05/10 07:45:25;;;;;;;11.60;5.53;;;;;;;27.28;40.04;99768.44;5000536;28;20498;-58
2022/05/10 07:47:50;;;;;;;18.33;6.70;;;;;;;26.58;43.00;99762.78;4971215;28;20484;-56
2022/05/10 07:50:18;;;;;;;22.92;6.28;;;;;;;27.85;39.88;99760.47;4983813;28;20029;-57
2022/05/10 07:52:44;;;;;;;19.05;6.15;;;;;;;27.80;40.89;99752.41;5004807;28;20164;-58
2022/05/10 07:55:12;;;;;;;11.85;6.00;;;;;;;27.31;40.32;99756.75;5005044;28;20026;-57
2022/05/10 07:57:39;;;;;;;17.75;6.38;;;;;;;24.52;45.73;99748.44;5004903;28;20029;-57
2022/05/10 08:00:06;;;;;;;13.77;6.13;;;;;;;26.06;43.73;99754.94;5000051;28;20091;-56
2022/05/10 08:02:33;;;;;;;17.42;6.55;;;;;;;27.38;40.27;99749.88;5004941;28;20038;-57
2022/05/10 08:04:59;;;;;;;14.63;5.32;;;;;;;26.87;41.72;99745.38;5006219;28;20037;-56
2022/05/10 08:07:24;;;;;;;10.32;5.18;;;;;;;27.31;40.30;99747.69;4977476;28;20025;-56
2022/05/10 08:09:52;;;;;;;16.90;6.30;;;;;;;28.11;38.67;99744.38;4973089;28;20038;-55
2022/05/10 08:12:18;;;;;;;10.63;5.40;;;;;;;27.31;40.79;99744.94;4979813;28;20365;-57
2022/05/10 08:14:44;;;;;;;10.15;5.15;;;;;;;28.30;38.61;99740.97;5004689;28;20037;-59
2022/05/10 08:17:09;;;;;;;9.70;4.88;;;;;;;28.03;40.08;99748.06;5004788;28;20332;-59
2022/05/10 08:19:35;;;;;;;7.68;5.38;;;;;;;26.70;40.93;99744.75;5005242;28;20431;-58
2022/05/10 08:22:00;;;;;;;11.95;5.10;;;;;;;25.57;41.05;99738.06;4986887;28;20021;-59
2022/05/10 08:24:27;;;;;;;12.63;5.15;;;;;;;26.12;41.10;99741.81;5004937;28;20030;-56
2022/05/10 08:26:54;;;;;;;8.65;5.13;;;;;;;25.73;41.59;99738.28;5005376;28;20037;-56
2022/05/10 08:29:20;;;;;;;8.27;5.00;;;;;;;26.07;41.27;99740.06;4988031;28;20042;-58
2022/05/10 08:31:45;;;;;;;9.60;4.95;;;;;;;25.63;42.16;99731.22;5002736;28;20449;-58
2022/05/10 08:34:11;;;;;;;7.57;5.13;;;;;;;25.96;42.23;99725.91;5006820;28;20420;-56
2022/05/10 08:36:37;;;;;;;8.13;5.05;;;;;;;25.81;42.01;99729.22;5006980;28;20496;-56
2022/05/10 08:39:02;;;;;;;6.63;5.10;;;;;;;25.96;42.83;99725.09;5006322;28;20030;-56
2022/05/10 08:41:32;;;;;;;9.02;5.05;;;;;;;26.02;43.08;99735.56;5007971;28;20651;-58
2022/05/10 08:44:02;;;;;;;10.88;4.93;;;;;;;25.89;42.43;99725.63;5007794;28;20124;-57
2022/05/10 08:46:43;;;;;;;7.80;5.05;;;;;;;26.18;42.19;99729.47;5006118;28;20369;-58
2022/05/10 08:49:24;;;;;;;8.38;4.90;;;;;;;25.77;43.55;99717.28;4990349;28;20061;-58
2022/05/10 08:51:50;;;;;;;8.23;5.57;;;;;;;24.13;46.43;99716.50;4965837;28;20047;-58
2022/05/10 08:54:16;;;;;;;10.35;5.38;;;;;;;25.20;44.89;99720.47;4971071;28;20509;-58
2022/05/10 08:57:13;;;;;;;8.75;5.43;;;;;;;25.31;44.18;99716.19;5004122;28;20092;-58
2022/05/10 09:00:04;;;;;;;8.73;5.45;;;;;;;25.77;43.76;99718.06;5004472;28;20069;-56
2022/05/10 09:02:44;;;;;;;7.75;4.88;;;;;;;26.93;41.85;99706.66;5005556;28;20057;-58
2022/05/10 09:05:32;;;;;;;8.68;5.75;;;;;;;24.70;44.87;99705.41;5008628;28;20040;-58
2022/05/10 09:07:57;;;;;;;10.85;5.80;;;;;;;24.31;45.36;99702.50;5000074;28;20472;-58
2022/05/10 09:10:27;;;;;;;7.10;5.82;;;;;;;24.06;47.26;99706.03;5004134;28;20025;-58
2022/05/10 09:13:11;;;;;;;8.35;5.65;;;;;;;25.95;44.54;99707.00;4970485;28;20453;-58
2022/05/10 09:15:44;;;;;;;11.05;5.45;;;;;;;26.15;42.64;99705.41;5006685;28;20029;-57
2022/05/10 09:18:24;;;;;;;6.93;5.10;;;;;;;24.83;47.09;99695.38;4990469;28;20033;-58
2022/05/10 09:21:10;;;;;;;10.07;5.65;;;;;;;23.73;47.88;99695.50;4981522;28;20037;-58
2022/05/10 09:23:54;;;;;;;8.65;6.03;;;;;;;23.71;49.59;99696.91;4991842;28;20356;-57
2022/05/10 09:26:19;;;;;;;9.77;5.85;;;;;;;24.36;47.99;99692.50;4997975;28;20388;-58
2022/05/10 09:28:47;;;;;;;9.27;5.88;;;;;;;24.59;48.54;99690.41;4974269;28;20030;-58
2022/05/10 09:36:55;;;;;;;9.90;5.68;;;;;;;25.09;47.42;99687.88;5007213;28;20068;-58
2022/05/10 09:39:28;;;;;;;8.02;5.78;;;;;;;24.52;46.00;99685.44;5007036;28;20026;-58
2022/05/10 09:41:54;;;;;;;10.68;6.30;;;;;;;24.39;47.03;99686.38;4974746;28;20025;-58
2022/05/10 09:44:31;;;;;;;11.30;5.60;;;;;;;25.01;45.52;99680.50;5002327;28;20038;-58
2022/05/10 09:47:14;;;;;;;8.88;5.28;;;;;;;23.97;47.71;99681.38;5006852;28;20053;-57
2022/05/10 09:49:40;;;;;;;8.70;5.60;;;;;;;24.86;45.92;99683.75;5007652;28;20034;-57
2022/05/10 09:52:15;;;;;;;7.57;5.40;;;;;;;24.33;47.43;99683.00;5007535;28;20066;-58
2022/05/10 09:54:41;;;;;;;7.05;5.40;;;;;;;25.10;44.86;99681.25;5000336;28;20417;-58
2022/05/10 09:57:13;;;;;;;7.38;5.20;;;;;;;25.36;45.56;99674.88;4971741;28;20045;-58
2022/05/10 09:59:46;;;;;;;11.73;5.47;;;;;;;24.67;46.72;99673.97;5006054;28;20368;-58
2022/05/10 10:02:11;;;;;;;6.40;5.40;;;;;;;25.10;45.22;99673.03;5003898;28;20022;-57
2022/05/10 10:04:40;;;;;;;9.98;5.25;;;;;;;25.55;46.06;99660.72;4989365;28;20116;-57
2022/05/10 10:07:16;;;;;;;7.80;4.97;;;;;;;26.75;43.09;99667.56;5006550;28;20491;-57
2022/05/10 10:09:47;;;;;;;10.25;5.65;;;;;;;28.23;38.44;99658.13;5006328;28;20045;-58
2022/05/10 10:12:28;;;;;;;7.32;4.90;;;;;;;27.40;38.52;99667.75;5005511;28;20575;-58
2022/05/10 10:14:53;;;;;;;7.55;4.80;;;;;;;26.68;40.62;99654.34;4972932;28;20034;-57
2022/05/10 10:17:28;;;;;;;9.27;5.03;;;;;;;27.60;39.69;99653.06;4970442;28;20476;-57
2022/05/10 10:20:32;;;;;;;8.10;4.63;;;;;;;26.77;39.82;99666.06;4968700;28;20029;-57
2022/05/10 10:23:03;;;;;;;5.82;4.50;;;;;;;26.50;39.27;99666.66;4975790;28;20047;-57
2022/05/10 10:25:40;;;;;;;8.00;4.57;;;;;;;26.75;39.24;99651.06;4984780;28;20349;-58
2022/05/10 10:28:37;;;;;;;5.55;4.38;;;;;;;25.66;39.42;99656.47;5002712;28;20049;-57
2022/05/10 10:31:13;;;;;;;8.85;4.57;;;;;;;27.03;37.54;99651.22;5005533;28;20038;-57
2022/05/10 10:33:41;;;;;;;9.15;4.47;;;;;;;27.58;37.54;99646.28;4990438;28;20034;-58
2022/05/10 10:36:11;;;;;;;8.27;4.47;;;;;;;27.62;37.91;99645.25;4988560;28;20372;-58
2022/05/10 10:38:56;;;;;;;5.57;4.20;;;;;;;26.96;35.64;99639.97;4986478;28;20022;-57
2022/05/10 10:41:46;;;;;;;8.50;4.40;;;;;;;27.87;35.00;99634.22;5004904;28;20511;-58
2022/05/10 10:44:26;;;;;;;9.63;4.60;;;;;;;26.98;35.86;99632.97;4988680;28;20057;-58
2022/05/10 10:47:06;;;;;;;8.85;4.40;;;;;;;26.45;37.04;99632.72;5003789;28;20396;-58
2022/05/10 10:49:49;;;;;;;10.63;4.07;;;;;;;26.57;36.06;99625.72;5002532;28;20030;-57
2022/05/10 10:52:15;;;;;;;11.27;4.03;;;;;;;25.59;37.94;99624.06;5000723;28;20026;-57
2022/05/10 10:54:40;;;;;;;5.90;4.40;;;;;;;25.04;38.69;99619.50;5007594;28;20033;-57
2022/05/10 10:57:26;;;;;;;8.10;4.03;;;;;;;26.02;38.86;99613.91;5006406;28;20280;-57
2022/05/10 11:00:09;;;;;;;8.00;4.43;;;;;;;24.64;38.47;99610.78;5003597;28;20033;-57
2022/05/10 11:02:40;;;;;;;7.53;4.50;;;;;;;26.45;38.79;99616.25;4995076;28;20038;-57
2022/05/10 11:05:31;;;;;;;8.07;4.20;;;;;;;25.91;38.24;99602.56;5006197;28;20089;-58
2022/05/10 11:08:11;;;;;;;7.07;4.70;;;;;;;24.75;36.69;99596.38;4976248;28;20420;-57
2022/05/10 11:10:55;;;;;;;6.82;4.20;;;;;;;26.21;37.17;99599.72;5005306;28;20092;-57
2022/05/10 11:13:42;;;;;;;7.65;4.07;;;;;;;27.16;36.05;99597.81;5004450;28;20305;-57
2022/05/10 11:16:26;;;;;;;6.07;3.78;;;;;;;26.54;34.90;99607.16;5005752;28;20406;-57
2022/05/10 11:18:58;;;;;;;8.52;4.32;;;;;;;26.81;35.74;99589.19;5005847;28;20029;-57
2022/05/10 11:21:28;;;;;;;7.97;4.25;;;;;;;27.14;35.36;99589.09;5005349;28;20029;-57
2022/05/10 11:24:07;;;;;;;6.53;3.90;;;;;;;27.47;35.82;99580.72;5004631;28;20551;-57
2022/05/10 11:27:26;;;;;;;5.75;3.90;;;;;;;26.73;36.25;99577.16;5005873;28;20033;-58
2022/05/10 11:29:55;;;;;;;7.10;4.40;;;;;;;27.77;34.69;99576.84;4924978;29;20506;-57
2022/05/10 11:32:28;;;;;;;5.00;3.78;;;;;;;27.95;32.91;99578.19;4971616;28;20335;-59
2022/05/10 11:35:15;;;;;;;7.35;3.85;;;;;;;27.49;32.75;99566.63;4999246;28;20029;-58
2022/05/10 11:38:03;;;;;;;8.95;4.13;;;;;;;26.33;35.60;99575.00;4988659;28;20026;-59
2022/05/10 11:40:33;;;;;;;9.18;4.25;;;;;;;26.12;37.12;99566.00;4977708;28;20052;-57
2022/05/10 11:43:27;;;;;;;9.52;4.13;;;;;;;27.19;35.35;99566.88;4988128;28;20506;-57
2022/05/10 11:46:05;;;;;;;8.48;3.65;;;;;;;27.90;34.32;99561.91;5003360;28;20092;-57
2022/05/10 11:48:53;;;;;;;7.20;3.65;;;;;;;27.79;35.32;99569.06;5001952;28;20037;-57
2022/05/10 11:51:44;;;;;;;5.60;3.90;;;;;;;26.99;35.92;99562.28;4979117;28;20085;-57
2022/05/10 11:54:39;;;;;;;6.65;4.00;;;;;;;27.75;35.33;99561.47;5002669;28;20498;-56